Time;durP1;ratioP1;P1;durP2;ratioP2;P2;SDS_P1;SDS_P2;PMS_P1;PMS_P2;Temp;Humidity;BMP_temperature;BMP_pressure;BME280_temperature;BME280_humidity;BME280_pressure;Samples;Min_cycle;Max_cycle;Signal;HPM_P1;HPM_P2
2023/12/26 00:00:21;;;;;;;6.22;4.32;;;;;;;10.07;100.00;100293.31;5071156;28;20080;-50
2023/12/26 00:02:49;;;;;;;6.45;3.88;;;;;;;10.07;100.00;100290.69;5073590;28;20044;-48
2023/12/26 00:05:17;;;;;;;4.88;3.33;;;;;;;10.06;100.00;100296.94;5075487;28;20135;-46
2023/12/26 00:07:48;;;;;;;5.22;3.75;;;;;;;10.04;100.00;100300.59;5075590;28;20479;-48
2023/12/26 00:10:17;;;;;;;5.18;3.72;;;;;;;10.04;100.00;100290.09;5074928;28;20040;-50
2023/12/26 00:12:46;;;;;;;6.05;3.33;;;;;;;10.02;100.00;100302.50;5070495;28;20049;-46
2023/12/26 00:15:17;;;;;;;4.93;3.35;;;;;;;10.02;100.00;100294.59;5073608;28;20124;-46
2023/12/26 00:17:46;;;;;;;7.28;3.30;;;;;;;10.01;100.00;100292.91;5075312;28;20048;-48
2023/12/26 00:20:14;;;;;;;5.03;3.00;;;;;;;10.01;100.00;100287.66;5075308;28;20045;-48
2023/12/26 00:22:43;;;;;;;5.43;3.00;;;;;;;10.03;100.00;100296.28;5075354;28;20376;-45
2023/12/26 00:25:11;;;;;;;3.72;2.40;;;;;;;10.00;100.00;100302.59;5073903;28;20102;-44
2023/12/26 00:27:40;;;;;;;4.05;2.30;;;;;;;10.03;100.00;100309.44;5075380;28;20056;-47
2023/12/26 00:30:11;;;;;;;3.70;2.10;;;;;;;10.02;100.00;100289.34;5075135;28;20033;-47
2023/12/26 00:32:39;;;;;;;2.40;1.90;;;;;;;10.01;100.00;100303.44;5073967;28;20054;-48
2023/12/26 00:35:08;;;;;;;3.03;2.00;;;;;;;10.01;100.00;100300.81;5075362;28;20053;-50
2023/12/26 00:37:36;;;;;;;3.38;1.90;;;;;;;9.97;100.00;100303.66;5075108;28;20519;-48
2023/12/26 00:40:06;;;;;;;3.35;2.00;;;;;;;9.91;100.00;100298.84;5075152;28;20040;-48
2023/12/26 00:42:35;;;;;;;3.65;1.80;;;;;;;9.90;100.00;100291.91;5075101;28;20105;-47
2023/12/26 00:45:04;;;;;;;5.55;1.85;;;;;;;9.92;100.00;100294.44;5073718;28;20053;-49
2023/12/26 00:47:34;;;;;;;2.38;1.60;;;;;;;9.88;100.00;100303.47;5073649;28;20053;-48
2023/12/26 00:50:03;;;;;;;2.65;1.60;;;;;;;9.89;100.00;100306.00;5074709;28;20060;-47
2023/12/26 00:52:32;;;;;;;2.63;1.50;;;;;;;9.91;100.00;100314.63;5074864;28;20387;-47
2023/12/26 00:55:00;;;;;;;2.92;1.60;;;;;;;9.87;100.00;100307.91;5072979;28;20129;-47
2023/12/26 00:57:28;;;;;;;2.83;1.25;;;;;;;9.83;100.00;100301.19;5069766;28;20096;-47
2023/12/26 00:59:56;;;;;;;3.47;1.10;;;;;;;9.79;100.00;100299.72;5072273;28;20055;-46
2023/12/26 01:02:25;;;;;;;3.17;0.95;;;;;;;9.77;100.00;100304.22;5074679;28;20048;-45
2023/12/26 01:04:56;;;;;;;3.42;0.88;;;;;;;9.79;100.00;100321.56;5074588;28;20048;-44
2023/12/26 01:07:24;;;;;;;1.85;1.00;;;;;;;9.80;100.00;100306.63;5074420;28;20048;-47
2023/12/26 01:09:54;;;;;;;1.83;1.15;;;;;;;9.78;100.00;100303.28;5074477;28;20045;-46
2023/12/26 01:12:22;;;;;;;2.70;1.30;;;;;;;9.74;100.00;100307.09;5074871;28;20047;-46
2023/12/26 01:14:50;;;;;;;3.03;1.42;;;;;;;9.76;100.00;100303.41;5069882;28;20041;-50
2023/12/26 01:17:19;;;;;;;4.68;2.00;;;;;;;9.74;100.00;100304.47;5069859;28;20064;-47
2023/12/26 01:19:47;;;;;;;4.07;2.05;;;;;;;9.74;100.00;100296.59;5074182;28;20072;-47
2023/12/26 01:22:17;;;;;;;6.45;2.50;;;;;;;9.71;100.00;100296.81;5074368;28;20048;-45
2023/12/26 01:24:45;;;;;;;6.32;1.98;;;;;;;9.71;100.00;100296.81;5074240;28;20079;-47
2023/12/26 01:27:14;;;;;;;5.18;1.98;;;;;;;9.72;100.00;100308.97;5074232;28;20571;-47
2023/12/26 01:29:42;;;;;;;5.13;2.20;;;;;;;9.73;100.00;100302.78;5074265;28;20044;-47
2023/12/26 01:32:11;;;;;;;5.93;2.15;;;;;;;9.73;100.00;100302.78;5074293;28;20114;-45
2023/12/26 01:34:39;;;;;;;4.65;1.85;;;;;;;9.72;100.00;100315.06;5074051;28;20045;-50
2023/12/26 01:37:10;;;;;;;5.25;2.10;;;;;;;9.70;100.00;100316.13;5074241;28;20071;-46
2023/12/26 01:39:39;;;;;;;4.63;1.83;;;;;;;9.69;100.00;100320.50;5072568;28;20052;-47
2023/12/26 01:42:08;;;;;;;7.32;1.92;;;;;;;9.71;100.00;100317.81;5073869;28;20052;-59
2023/12/26 01:44:36;;;;;;;3.35;1.60;;;;;;;9.69;100.00;100312.63;5073992;28;20514;-47
2023/12/26 01:47:05;;;;;;;2.95;1.60;;;;;;;9.70;100.00;100324.81;5071966;28;20841;-59
2023/12/26 01:49:33;;;;;;;2.28;1.50;;;;;;;9.69;100.00;100315.25;5070172;28;20419;-46
2023/12/26 01:52:03;;;;;;;3.13;1.38;;;;;;;9.69;100.00;100322.31;5073088;28;20048;-46
2023/12/26 01:54:34;;;;;;;3.05;1.45;;;;;;;9.71;100.00;100320.44;5073349;28;20048;-50
2023/12/26 01:57:06;;;;;;;4.35;1.70;;;;;;;9.66;100.00;100325.16;5072137;28;20049;-50
2023/12/26 01:59:36;;;;;;;3.30;1.58;;;;;;;9.68;100.00;100325.88;5073135;28;20086;-48
2023/12/26 02:02:06;;;;;;;4.15;1.80;;;;;;;9.68;100.00;100324.13;5073368;28;20045;-48
2023/12/26 02:04:34;;;;;;;3.53;1.80;;;;;;;9.70;100.00;100329.25;5073187;28;20052;-49
2023/12/26 02:07:03;;;;;;;3.53;1.67;;;;;;;9.66;100.00;100338.28;5073507;28;20139;-46
2023/12/26 02:09:31;;;;;;;7.82;2.38;;;;;;;9.68;100.00;100339.00;5073314;28;20130;-48
2023/12/26 02:12:00;;;;;;;4.72;2.10;;;;;;;9.68;100.00;100339.00;5073214;28;20044;-47
2023/12/26 02:14:29;;;;;;;4.05;2.10;;;;;;;9.70;100.00;100335.34;5073131;28;20044;-47
2023/12/26 02:17:01;;;;;;;4.28;2.20;;;;;;;9.70;100.00;100337.13;5073180;28;20156;-46
2023/12/26 02:19:30;;;;;;;5.05;2.30;;;;;;;9.68;100.00;100349.50;5072983;28;20507;-46
2023/12/26 02:21:58;;;;;;;5.97;2.15;;;;;;;9.70;100.00;100339.75;5073052;28;20087;-49
2023/12/26 02:24:27;;;;;;;3.03;1.70;;;;;;;9.68;100.00;100341.63;5073221;28;20048;-46
2023/12/26 02:26:59;;;;;;;4.53;1.60;;;;;;;9.68;100.00;100339.00;5073078;28;20094;-47
2023/12/26 02:29:30;;;;;;;5.07;1.80;;;;;;;9.68;100.00;100339.00;5072847;28;20513;-47
2023/12/26 02:32:00;;;;;;;1.60;0.98;;;;;;;9.66;100.00;100352.25;5072963;28;20060;-46
2023/12/26 02:34:28;;;;;;;2.08;0.93;;;;;;;9.64;100.00;100357.59;5072738;28;20062;-48
2023/12/26 02:37:00;;;;;;;1.20;1.10;;;;;;;9.64;100.00;100362.03;5072732;28;20123;-47
2023/12/26 02:39:30;;;;;;;3.00;1.17;;;;;;;9.61;100.00;100362.22;5071177;28;20407;-47
2023/12/26 02:41:58;;;;;;;2.42;0.82;;;;;;;9.64;100.00;100368.09;5068106;28;20102;-50
2023/12/26 02:44:26;;;;;;;1.80;1.20;;;;;;;9.66;100.00;100372.41;5069308;28;20474;-46
2023/12/26 02:46:57;;;;;;;3.35;1.60;;;;;;;9.64;100.00;100381.25;5072439;28;20070;-46
2023/12/26 02:49:28;;;;;;;4.82;2.40;;;;;;;9.63;100.00;100382.19;5072476;28;20047;-46
2023/12/26 02:51:57;;;;;;;3.83;2.25;;;;;;;9.63;100.00;100382.19;5072404;28;20055;-46
2023/12/26 02:54:25;;;;;;;6.10;2.20;;;;;;;9.63;100.00;100386.59;5072364;28;20046;-46
2023/12/26 02:56:55;;;;;;;4.80;1.98;;;;;;;9.62;100.00;100390.16;5072263;28;20048;-45
2023/12/26 02:59:23;;;;;;;4.80;1.70;;;;;;;9.62;100.00;100396.25;5072132;28;20094;-46
2023/12/26 03:01:51;;;;;;;6.00;1.85;;;;;;;9.65;100.00;100392.56;5072037;28;20055;-48
2023/12/26 03:04:20;;;;;;;5.38;1.60;;;;;;;9.63;100.00;100395.31;5072366;28;20695;-48
2023/12/26 03:06:48;;;;;;;8.05;1.95;;;;;;;9.63;100.00;100397.94;5072122;28;20056;-48
2023/12/26 03:09:16;;;;;;;8.15;1.70;;;;;;;9.62;100.00;100403.28;5072404;28;20087;-46
2023/12/26 03:11:45;;;;;;;7.68;1.73;;;;;;;9.61;100.00;100407.72;5072026;28;20044;-47
2023/12/26 03:14:15;;;;;;;5.68;1.50;;;;;;;9.62;100.00;100419.88;5072072;28;20052;-47
2023/12/26 03:16:44;;;;;;;7.53;1.30;;;;;;;9.66;100.00;100424.94;5071860;28;20454;-50
2023/12/26 03:19:12;;;;;;;6.97;1.40;;;;;;;9.67;100.00;100416.94;5072038;28;20046;-46
2023/12/26 03:21:40;;;;;;;7.40;1.60;;;;;;;9.67;100.00;100416.94;5070415;28;20045;-46
2023/12/26 03:24:09;;;;;;;6.50;1.27;;;;;;;9.63;100.00;100424.19;5071941;28;20408;-48
2023/12/26 03:26:37;;;;;;;6.90;1.90;;;;;;;9.61;100.00;100428.72;5070276;28;20052;-45
2023/12/26 03:29:05;;;;;;;5.90;1.30;;;;;;;9.60;100.00;100427.03;5067495;28;20055;-47
2023/12/26 03:31:39;;;;;;;12.27;1.88;;;;;;;9.59;100.00;100425.34;5070599;28;20056;-47
2023/12/26 03:34:07;;;;;;;8.23;1.58;;;;;;;9.61;100.00;100438.34;5071970;28;20053;-49
2023/12/26 03:36:43;;;;;;;7.20;1.40;;;;;;;9.57;100.00;100443.00;5071494;28;20051;-47
2023/12/26 03:39:11;;;;;;;;;;;;;;;9.54;100.00;100440.56;5072319;28;20063;-48
2023/12/26 03:41:39;;;;;;;9.35;1.50;;;;;;;9.55;100.00;100444.88;5071576;28;19928;-50
2023/12/26 03:44:08;;;;;;;7.80;1.30;;;;;;;9.56;100.00;100457.06;5071589;28;20083;-50
2023/12/26 03:46:39;;;;;;;9.63;1.70;;;;;;;9.51;100.00;100461.75;5071250;28;20051;-47
2023/12/26 03:49:07;;;;;;;5.35;1.25;;;;;;;9.52;100.00;100460.84;5071487;28;20080;-48
2023/12/26 03:51:36;;;;;;;7.38;1.52;;;;;;;9.51;100.00;100453.88;5071469;28;20526;-47
2023/12/26 03:54:04;;;;;;;5.72;1.50;;;;;;;9.50;100.00;100452.19;5071539;28;20044;-45
2023/12/26 03:56:35;;;;;;;6.15;1.50;;;;;;;9.45;100.00;100454.31;5066944;28;20052;-46
2023/12/26 03:59:04;;;;;;;8.10;1.55;;;;;;;9.45;100.00;100456.94;5067105;28;20056;-48
2023/12/26 04:01:33;;;;;;;11.10;2.30;;;;;;;9.45;100.00;100451.69;5067977;28;20132;-46
2023/12/26 04:04:04;;;;;;;5.18;1.25;;;;;;;9.42;100.00;100472.88;5071873;28;20052;-48
2023/12/26 04:06:32;;;;;;;8.90;1.33;;;;;;;9.42;100.00;100472.88;5071470;28;20056;-44
2023/12/26 04:09:03;;;;;;;11.18;2.17;;;;;;;9.41;100.00;100481.72;5071571;28;20075;-49
2023/12/26 04:11:32;;;;;;;6.55;1.45;;;;;;;9.41;100.00;100490.41;5071486;28;20106;-45
2023/12/26 04:14:00;;;;;;;6.88;1.45;;;;;;;9.41;100.00;100494.84;5071393;28;20453;-46
2023/12/26 04:16:28;;;;;;;10.88;1.50;;;;;;;9.39;100.00;100496.69;5071432;28;20403;-47
2023/12/26 04:18:57;;;;;;;6.57;1.30;;;;;;;9.37;100.00;100495.97;5071438;28;20550;-46
2023/12/26 04:21:27;;;;;;;7.38;1.48;;;;;;;9.37;100.00;100496.81;5070127;28;20486;-47
2023/12/26 04:23:56;;;;;;;6.82;1.20;;;;;;;9.34;100.00;100504.03;5071527;28;20056;-47
2023/12/26 04:26:24;;;;;;;7.38;1.40;;;;;;;9.30;100.00;100508.66;5071708;28;20377;-46
2023/12/26 04:28:53;;;;;;;6.43;1.25;;;;;;;9.26;100.00;100518.50;5071435;28;20078;-46
2023/12/26 04:31:21;;;;;;;4.72;1.40;;;;;;;9.22;100.00;100511.78;5070112;28;20388;-50
2023/12/26 04:33:49;;;;;;;9.25;1.70;;;;;;;9.22;100.00;100518.81;5071440;28;20426;-48
2023/12/26 04:36:18;;;;;;;6.97;1.20;;;;;;;9.19;100.00;100522.47;5068261;28;20064;-48
2023/12/26 04:38:48;;;;;;;6.18;1.35;;;;;;;9.17;100.00;100526.97;5067778;28;20051;-50
2023/12/26 04:41:17;;;;;;;6.25;1.15;;;;;;;9.11;100.00;100530.00;5071031;28;20080;-48
2023/12/26 04:43:47;;;;;;;6.85;1.05;;;;;;;9.03;100.00;100532.25;5071131;28;20050;-47
2023/12/26 04:46:20;;;;;;;7.15;1.50;;;;;;;8.95;100.00;100525.69;5071142;28;20049;-49
2023/12/26 04:48:48;;;;;;;3.65;0.98;;;;;;;8.95;100.00;100536.19;5071604;28;20052;-48
2023/12/26 04:51:20;;;;;;;8.70;1.30;;;;;;;8.92;100.00;100541.63;5074629;28;20044;-47
2023/12/26 04:53:50;;;;;;;6.80;1.58;;;;;;;8.86;100.00;100557.78;5074556;28;20045;-45
2023/12/26 04:56:19;;;;;;;7.63;0.93;;;;;;;8.79;100.00;100561.69;5072709;28;20113;-49
2023/12/26 04:58:49;;;;;;;5.50;1.20;;;;;;;8.76;100.00;100561.91;5070255;28;20633;-47
2023/12/26 05:01:18;;;;;;;5.78;1.10;;;;;;;8.71;100.00;100563.94;5073547;28;20049;-46
2023/12/26 05:03:47;;;;;;;12.32;1.80;;;;;;;8.69;100.00;100576.34;5074471;28;20048;-46
2023/12/26 05:06:21;;;;;;;6.70;1.15;;;;;;;8.65;100.00;100590.56;5073424;28;20477;-48
2023/12/26 05:08:51;;;;;;;5.68;1.17;;;;;;;8.58;100.00;100588.31;5073218;28;20053;-47
2023/12/26 05:11:23;;;;;;;7.78;1.52;;;;;;;8.52;100.00;100595.69;5073020;28;20052;-47
2023/12/26 05:13:52;;;;;;;4.75;0.93;;;;;;;8.52;100.00;100595.69;5074547;28;20059;-45
2023/12/26 05:16:22;;;;;;;7.65;1.52;;;;;;;8.50;100.00;100598.41;5074574;28;20495;-46
2023/12/26 05:18:51;;;;;;;7.00;1.45;;;;;;;8.46;100.00;100602.97;5072957;28;20056;-46
2023/12/26 05:21:22;;;;;;;7.15;1.23;;;;;;;8.43;100.00;100602.31;5074131;28;20047;-50
2023/12/26 05:23:52;;;;;;;8.80;1.60;;;;;;;8.43;100.00;100618.03;5073796;28;20376;-47
2023/12/26 05:26:20;;;;;;;8.10;1.30;;;;;;;8.42;100.00;100621.59;5073778;28;20067;-47
2023/12/26 05:28:52;;;;;;;13.10;1.27;;;;;;;8.37;100.00;100616.63;5073671;28;20056;-49
2023/12/26 05:31:21;;;;;;;6.63;1.27;;;;;;;8.35;100.00;100630.75;5070264;28;20159;-47
2023/12/26 05:33:49;;;;;;;7.82;1.55;;;;;;;8.29;100.00;100631.97;5071257;28;20076;-48
2023/12/26 05:36:18;;;;;;;7.75;1.25;;;;;;;8.25;100.00;100636.53;5073833;28;20052;-48
2023/12/26 05:38:47;;;;;;;10.07;1.25;;;;;;;8.20;100.00;100633.31;5073959;28;20632;-48
2023/12/26 05:41:16;;;;;;;6.50;1.35;;;;;;;8.18;100.00;100637.81;5073770;28;20044;-46
2023/12/26 05:43:44;;;;;;;9.50;1.20;;;;;;;8.14;100.00;100649.41;5073774;28;20119;-48
2023/12/26 05:46:13;;;;;;;7.85;1.25;;;;;;;8.11;100.00;100649.56;5074027;28;20733;-48
2023/12/26 05:48:42;;;;;;;10.43;1.40;;;;;;;8.09;100.00;100659.31;5072460;28;20048;-46
2023/12/26 05:51:11;;;;;;;8.55;1.50;;;;;;;8.02;100.00;100671.09;5072452;28;20056;-45
2023/12/26 05:53:39;;;;;;;10.32;1.13;;;;;;;8.05;100.00;100669.09;5073680;28;20069;-45
2023/12/26 05:56:07;;;;;;;6.40;1.10;;;;;;;8.02;100.00;100681.56;5073535;28;20500;-49
2023/12/26 05:58:39;;;;;;;10.95;2.08;;;;;;;7.99;100.00;100686.94;5073448;28;20056;-47
2023/12/26 06:01:10;;;;;;;8.15;1.38;;;;;;;7.92;100.00;100692.56;5073057;28;20143;-46
2023/12/26 06:03:38;;;;;;;8.85;1.45;;;;;;;7.85;100.00;100696.41;5072120;28;20540;-46
2023/12/26 06:06:11;;;;;;;9.15;1.27;;;;;;;7.82;100.00;100696.59;5073492;28;20385;-46
2023/12/26 06:08:40;;;;;;;8.85;1.10;;;;;;;7.83;100.00;100708.78;5073348;28;20132;-46
2023/12/26 06:11:09;;;;;;;8.43;1.23;;;;;;;7.80;100.00;100719.41;5073267;28;20087;-45
2023/12/26 06:13:39;;;;;;;7.97;1.33;;;;;;;7.76;100.00;100725.75;5071955;28;20053;-45
2023/12/26 06:16:07;;;;;;;8.60;1.50;;;;;;;7.73;100.00;100728.53;5073228;28;20515;-45
2023/12/26 06:18:35;;;;;;;9.27;1.40;;;;;;;7.69;100.00;100734.84;5072960;28;20063;-47
2023/12/26 06:21:04;;;;;;;9.23;1.23;;;;;;;7.69;100.00;100737.47;5071874;28;20060;-45
2023/12/26 06:23:33;;;;;;;7.93;1.58;;;;;;;7.62;100.00;100742.19;5072904;28;20123;-48
2023/12/26 06:26:01;;;;;;;12.65;1.52;;;;;;;7.63;100.00;100758.75;5073028;28;20067;-45
2023/12/26 06:28:31;;;;;;;10.45;1.40;;;;;;;7.57;100.00;100767.78;5072979;28;20499;-46
2023/12/26 06:31:02;;;;;;;8.10;1.30;;;;;;;7.51;100.00;100768.09;5073085;28;20426;-46
2023/12/26 06:33:30;;;;;;;11.80;1.67;;;;;;;7.48;100.00;100773.50;5068668;28;20059;-44
2023/12/26 06:35:59;;;;;;;7.32;1.70;;;;;;;7.45;100.00;100774.53;5070033;28;20037;-47
2023/12/26 06:38:29;;;;;;;5.20;1.10;;;;;;;7.43;100.00;100773.75;5072934;28;20066;-45
2023/12/26 06:40:57;;;;;;;11.30;1.80;;;;;;;7.40;100.00;100781.75;5072924;28;20556;-47
2023/12/26 06:43:29;;;;;;;7.80;1.40;;;;;;;7.39;100.00;100795.75;5072642;28;20126;-48
2023/12/26 06:45:57;;;;;;;9.43;1.50;;;;;;;7.39;100.00;100803.63;5068859;28;20131;-58
2023/12/26 06:48:27;;;;;;;11.32;1.50;;;;;;;7.35;100.00;100802.94;5069551;28;20052;-58
2023/12/26 06:50:55;;;;;;;11.13;1.50;;;;;;;7.32;100.00;100807.47;5072243;28;20403;-59
2023/12/26 06:53:24;;;;;;;8.32;1.35;;;;;;;7.29;100.00;100813.72;5069882;28;20523;-59
2023/12/26 06:55:52;;;;;;;10.45;1.40;;;;;;;7.25;100.00;100815.66;5067400;28;20053;-58
2023/12/26 06:58:20;;;;;;;15.07;1.75;;;;;;;7.22;100.00;100825.44;5072095;28;20098;-59
2023/12/26 07:00:51;;;;;;;10.50;1.88;;;;;;;7.17;100.00;100823.06;5072157;28;20082;-58
2023/12/26 07:03:19;;;;;;;9.52;1.58;;;;;;;7.17;100.00;100820.44;5072221;28;20036;-58
2023/12/26 07:05:49;;;;;;;7.43;1.30;;;;;;;7.16;100.00;100828.34;5070636;28;20076;-58
2023/12/26 07:08:19;;;;;;;10.57;1.70;;;;;;;7.10;100.00;100829.50;5068841;28;20147;-58
2023/12/26 07:10:51;;;;;;;7.95;1.10;;;;;;;7.09;100.00;100830.47;5070957;28;20376;-58
2023/12/26 07:13:19;;;;;;;11.30;1.88;;;;;;;7.08;100.00;100841.84;5066641;28;20090;-58
2023/12/26 07:15:47;;;;;;;6.60;1.30;;;;;;;7.07;100.00;100846.19;5069698;28;20036;-58
2023/12/26 07:18:18;;;;;;;7.30;1.60;;;;;;;7.04;100.00;100846.34;5072257;28;20060;-58
2023/12/26 07:20:47;;;;;;;10.75;1.50;;;;;;;7.04;100.00;100848.16;5070695;28;20044;-59
2023/12/26 07:23:16;;;;;;;5.07;1.42;;;;;;;7.01;100.00;100848.28;5072009;28;20472;-58
2023/12/26 07:25:45;;;;;;;9.25;1.40;;;;;;;6.98;100.00;100851.06;5071166;28;20406;-58
2023/12/26 07:28:16;;;;;;;9.35;1.27;;;;;;;6.93;100.00;100865.19;5066345;28;20080;-58
2023/12/26 07:30:45;;;;;;;14.25;1.90;;;;;;;6.87;100.00;100862.91;5068890;28;20048;-58
2023/12/26 07:33:14;;;;;;;10.00;1.38;;;;;;;6.85;100.00;100866.50;5068956;28;20419;-58
2023/12/26 07:35:42;;;;;;;11.00;1.38;;;;;;;6.84;100.00;100868.25;5071785;28;20045;-58
2023/12/26 07:38:10;;;;;;;10.30;1.40;;;;;;;6.82;100.00;100869.28;5071891;28;20052;-58
2023/12/26 07:40:40;;;;;;;10.18;1.40;;;;;;;6.78;100.00;100871.19;5072195;28;20041;-58
2023/12/26 07:43:10;;;;;;;9.77;2.15;;;;;;;6.77;100.00;100870.31;5071765;28;20048;-58
2023/12/26 07:45:38;;;;;;;9.45;1.50;;;;;;;6.73;100.00;100867.94;5071880;28;20083;-58
2023/12/26 07:48:07;;;;;;;7.35;1.30;;;;;;;6.73;100.00;100874.00;5071733;28;20044;-59
2023/12/26 07:50:35;;;;;;;9.93;1.48;;;;;;;6.74;100.00;100878.31;5071834;28;20062;-58
2023/12/26 07:53:04;;;;;;;8.93;1.45;;;;;;;6.67;100.00;100892.63;5070387;28;20044;-58
2023/12/26 07:55:33;;;;;;;9.70;1.38;;;;;;;6.67;100.00;100897.00;5070613;28;20048;-59
2023/12/26 07:58:02;;;;;;;11.20;1.60;;;;;;;6.67;100.00;100903.06;5071959;28;20041;-59
2023/12/26 08:00:31;;;;;;;9.57;1.33;;;;;;;6.73;100.00;100909.78;5071457;28;20048;-58
2023/12/26 08:02:59;;;;;;;10.00;1.70;;;;;;;6.66;100.00;100896.16;5071519;28;20048;-58
2023/12/26 08:05:29;;;;;;;9.95;1.90;;;;;;;6.67;100.00;100915.31;5071784;28;20067;-58
2023/12/26 08:07:57;;;;;;;5.65;1.00;;;;;;;6.70;100.00;100915.16;5071591;28;20102;-59
2023/12/26 08:10:26;;;;;;;11.48;2.00;;;;;;;6.75;100.00;100923.63;5071556;28;20428;-58
2023/12/26 08:12:54;;;;;;;6.35;1.17;;;;;;;6.77;100.00;100924.38;5071227;28;20048;-58
2023/12/26 08:15:24;;;;;;;6.68;1.30;;;;;;;6.80;100.00;100926.00;5071314;28;20372;-58
2023/12/26 08:17:52;;;;;;;10.57;1.30;;;;;;;6.82;100.00;100929.41;5070735;28;20037;-58
2023/12/26 08:20:21;;;;;;;8.60;1.30;;;;;;;6.81;100.00;100939.00;5068223;28;20380;-59
2023/12/26 08:22:52;;;;;;;10.15;1.50;;;;;;;6.82;100.00;100945.09;5070359;28;20495;-58
2023/12/26 08:25:21;;;;;;;11.48;2.00;;;;;;;6.81;100.00;100949.47;5075337;28;20463;-58
2023/12/26 08:27:49;;;;;;;7.57;1.30;;;;;;;6.90;100.00;100956.03;5073742;28;20049;-58
2023/12/26 08:30:20;;;;;;;9.68;1.77;;;;;;;6.88;100.00;100955.25;5074720;28;20086;-59
2023/12/26 08:32:50;;;;;;;12.07;1.77;;;;;;;6.85;100.00;100956.22;5074747;28;20076;-59
2023/12/26 08:35:21;;;;;;;10.82;1.58;;;;;;;6.90;100.00;100958.66;5075128;28;20040;-58
2023/12/26 08:37:49;;;;;;;11.13;2.05;;;;;;;6.87;100.00;100959.63;5074958;28;20049;-58
2023/12/26 08:40:18;;;;;;;13.07;1.60;;;;;;;6.89;100.00;100967.41;5075239;28;20094;-58
2023/12/26 08:42:46;;;;;;;5.00;1.30;;;;;;;6.88;100.00;100965.72;5074935;28;20131;-58
2023/12/26 08:45:14;;;;;;;11.98;1.88;;;;;;;6.88;100.00;100976.16;5074011;28;20094;-58
2023/12/26 08:47:43;;;;;;;8.85;1.50;;;;;;;6.97;100.00;100986.19;5071357;28;20507;-58
2023/12/26 08:50:13;;;;;;;9.40;1.92;;;;;;;6.97;100.00;100994.03;5073457;28;20102;-57
2023/12/26 08:52:41;;;;;;;6.95;1.63;;;;;;;6.99;100.00;100993.97;5074773;28;20129;-58
2023/12/26 08:55:09;;;;;;;8.82;1.55;;;;;;;7.04;100.00;100991.97;5074795;28;20432;-58
2023/12/26 08:57:38;;;;;;;11.07;2.03;;;;;;;7.13;100.00;100996.78;5074739;28;20072;-58
2023/12/26 09:00:09;;;;;;;14.38;2.30;;;;;;;7.21;100.00;101009.47;5074617;28;20466;-58
2023/12/26 09:02:37;;;;;;;11.73;1.73;;;;;;;7.30;100.00;101013.41;5074676;28;20053;-59
2023/12/26 09:05:18;;;;;;;8.50;1.65;;;;;;;7.39;100.00;101016.44;5071377;28;20076;-59
2023/12/26 09:07:47;;;;;;;10.57;1.80;;;;;;;7.47;100.00;101029.13;5070027;28;20147;-57
2023/12/26 09:10:15;;;;;;;7.43;1.65;;;;;;;7.50;100.00;101023.75;5074337;28;20048;-58
2023/12/26 09:12:43;;;;;;;9.38;2.05;;;;;;;7.53;100.00;101031.44;5072171;28;20131;-58
2023/12/26 09:15:11;;;;;;;12.23;1.65;;;;;;;7.55;100.00;101034.84;5070466;28;20403;-59
2023/12/26 09:17:40;;;;;;;8.88;1.70;;;;;;;7.55;100.00;101036.59;5072552;28;20055;-58
2023/12/26 09:20:09;;;;;;;9.52;1.42;;;;;;;7.51;100.00;101040.28;5071378;28;20508;-58
2023/12/26 09:22:41;;;;;;;10.90;2.05;;;;;;;7.49;100.00;101042.97;5071361;28;20044;-58
2023/12/26 09:25:13;;;;;;;7.10;1.40;;;;;;;7.46;100.00;101045.75;5072923;28;20045;-58
2023/12/26 09:27:42;;;;;;;12.32;2.20;;;;;;;7.39;100.00;101052.19;5074311;28;20051;-58
2023/12/26 09:30:12;;;;;;;12.63;1.55;;;;;;;7.34;100.00;101052.44;5074271;28;20063;-58
2023/12/26 09:32:40;;;;;;;9.43;1.65;;;;;;;7.33;100.00;101066.41;5072717;28;20442;-58
2023/12/26 09:35:12;;;;;;;12.38;1.98;;;;;;;7.31;100.00;101067.41;5070540;28;20036;-58
2023/12/26 09:37:41;;;;;;;13.27;1.67;;;;;;;7.28;100.00;101084.13;5071533;28;20044;-58
2023/12/26 09:40:12;;;;;;;10.23;1.35;;;;;;;7.28;100.00;101100.66;5073927;28;20456;-58
2023/12/26 09:42:41;;;;;;;11.52;2.15;;;;;;;7.33;100.00;101091.75;5074041;28;20036;-58
2023/12/26 09:45:12;;;;;;;9.55;1.70;;;;;;;7.37;100.00;101099.38;5073753;28;20042;-59
2023/12/26 09:47:42;;;;;;;10.48;1.33;;;;;;;7.43;100.00;101104.31;5073910;28;20049;-58
2023/12/26 09:50:11;;;;;;;8.93;1.33;;;;;;;7.49;100.00;101103.19;5073842;28;20044;-58
2023/12/26 09:52:44;;;;;;;12.88;1.55;;;;;;;7.50;100.00;101107.50;5073738;28;20048;-58
2023/12/26 09:55:13;;;;;;;10.15;1.30;;;;;;;7.54;100.00;101106.44;5073605;28;20452;-58
2023/12/26 09:57:42;;;;;;;11.13;1.92;;;;;;;7.58;100.00;101104.50;5073493;28;20139;-58
2023/12/26 10:00:12;;;;;;;11.32;1.60;;;;;;;7.63;100.00;101104.28;5073423;28;20102;-57
2023/12/26 10:02:41;;;;;;;11.32;2.38;;;;;;;7.67;100.00;101109.28;5073697;28;20514;-58
2023/12/26 10:05:10;;;;;;;9.82;1.90;;;;;;;7.70;100.00;101113.53;5073500;28;20483;-58
2023/12/26 10:07:38;;;;;;;7.60;1.70;;;;;;;7.76;100.00;101124.56;5073562;28;20048;-57
2023/12/26 10:10:19;;;;;;;13.35;1.98;;;;;;;7.78;100.00;101129.72;5073605;28;20052;-57
2023/12/26 10:12:48;;;;;;;12.30;2.28;;;;;;;7.80;100.00;101148.81;5073545;28;20055;-58
2023/12/26 10:15:17;;;;;;;11.25;2.13;;;;;;;7.81;100.00;101139.19;5073245;28;20553;-58
2023/12/26 10:17:46;;;;;;;10.23;1.40;;;;;;;7.84;100.00;101141.66;5073247;28;20102;-59
2023/12/26 10:20:16;;;;;;;10.80;1.95;;;;;;;7.86;100.00;101148.50;5073188;28;20507;-58
2023/12/26 10:22:45;;;;;;;7.72;1.48;;;;;;;7.89;100.00;101155.38;5073287;28;20492;-58
2023/12/26 10:25:16;;;;;;;11.73;1.65;;;;;;;7.89;100.00;101153.59;5073136;28;20048;-58
2023/12/26 10:27:54;;;;;;;8.70;1.58;;;;;;;7.91;100.00;101150.94;5073054;28;20048;-58
2023/12/26 10:30:24;;;;;;;12.05;1.95;;;;;;;7.90;100.00;101155.28;5071722;28;20057;-59
2023/12/26 10:33:03;;;;;;;10.23;1.85;;;;;;;7.90;100.00;101150.06;5069258;28;20074;-59
2023/12/26 10:35:33;;;;;;;12.50;2.00;;;;;;;7.92;100.00;101158.69;5069440;28;20064;-58
2023/12/26 10:38:02;;;;;;;10.25;1.98;;;;;;;7.94;100.00;101153.38;5067885;28;20140;-58
2023/12/26 10:40:34;;;;;;;7.45;1.40;;;;;;;7.92;100.00;101156.09;5071403;28;20127;-58
2023/12/26 10:43:04;;;;;;;13.07;1.52;;;;;;;7.98;100.00;101156.72;5072589;28;20073;-59
2023/12/26 10:45:33;;;;;;;17.13;1.83;;;;;;;8.00;100.00;101154.84;5072163;28;20575;-59
2023/12/26 10:48:05;;;;;;;10.70;1.63;;;;;;;7.99;100.00;101164.50;5071406;28;20044;-57
2023/12/26 10:50:34;;;;;;;12.27;1.85;;;;;;;7.99;100.00;101163.63;5071160;28;20044;-58
2023/12/26 10:53:15;;;;;;;8.63;1.58;;;;;;;8.00;100.00;101165.31;5072573;28;20076;-58
2023/12/26 10:55:47;;;;;;;12.98;1.88;;;;;;;8.02;100.00;101166.94;5072252;28;20044;-59
2023/12/26 10:58:20;;;;;;;12.63;1.80;;;;;;;8.06;100.00;101171.13;5072590;28;20072;-58
2023/12/26 13:54:12;;;;;;;7.80;1.52;;;;;;;8.53;100.00;101386.41;5053746;28;20052;-47
2023/12/26 13:56:41;;;;;;;7.75;1.25;;;;;;;8.52;100.00;101401.31;5053544;28;20590;-47
2023/12/26 13:59:09;;;;;;;9.05;1.83;;;;;;;8.50;100.00;101403.13;5051980;28;20060;-49
2023/12/26 14:01:40;;;;;;;7.25;1.75;;;;;;;8.50;100.00;101403.13;5052975;28;20055;-48
2023/12/26 14:04:08;;;;;;;8.82;1.60;;;;;;;8.52;100.00;101403.94;5052985;28;20060;-46
2023/12/26 14:06:36;;;;;;;9.95;1.67;;;;;;;8.50;100.00;101413.63;5053280;28;20037;-46
2023/12/26 14:09:05;;;;;;;5.75;1.13;;;;;;;8.51;100.00;101403.97;5053226;28;20049;-48
2023/12/26 14:11:33;;;;;;;6.30;1.48;;;;;;;8.49;100.00;101398.81;5053382;28;20484;-46
2023/12/26 14:14:02;;;;;;;8.45;1.50;;;;;;;8.47;100.00;101395.44;5053199;28;20053;-46
2023/12/26 14:16:30;;;;;;;6.70;1.10;;;;;;;8.46;100.00;101402.44;5052677;28;20090;-46
2023/12/26 14:18:59;;;;;;;8.80;1.65;;;;;;;8.43;100.00;101399.09;5050367;28;20103;-46
2023/12/26 14:21:30;;;;;;;5.38;1.17;;;;;;;8.38;100.00;101401.06;5049452;28;20055;-47
2023/12/26 14:23:58;;;;;;;8.07;1.27;;;;;;;8.37;100.00;101409.84;5052409;28;20052;-46